Tiempo atmosférico en la estación meteorológica de Bailo, Huesca (722 m.)



Fecha
DESCASC
Temp. máxima en grados centígrados (hora)
DESCASC
Temp. mínima en grados centígrados (hora)
DESCASC
Temp. media en grados centígrados
DESCASC
Racha de viento máxima en m/sg (hora)
DESCASC
Velocidad máxima media en intervalos de 10 minutos(hora)
DESCASC
Precipitaciones diarias en mm
DESCASC
Precipitaciones de 00:00 a 06:00 en mm
DESCASC
Precipitaciones de 06:00 a 12:00 en mm
DESCASC
Precipitaciones de 12:00 a 18:00 en mm
DESCASC
Precipitaciones de 18:00 a 24:00 en mm
DESCASC
07-01-2021 -1 (16:40) -7.2 (-00:0) -4.1 1.94 (19:20) 1.39 (06:20) 0 0 0 0 0
09-01-2021 -0.6 (15:40) -2.8 (-00:0) -1.7 2.5 (00:40) 1.67 (00:40) 11.4 0 3.2 4.6 3.6
10-01-2021 1.8 (15:50) -5.1 (23:50) -1.6 2.22 (19:10) 1.67 (19:30) 2.6 1.8 0.8 0 0
18-01-2021 10.8 (16:40) -1.3 (-00:0) 4.8 4.17 (00:20) 2.78 (00:20) 0 0 0 0 0
06-01-2021 2.8 (15:30) -6.8 (-00:0) -2 5 (11:30) 3.33 (11:30) 0 0 0 0 0
31-12-2020 5.7 (13:40) 0.7 (00:00) 3.2 6.11 (11:20) 3.61 (11:20) 1.4 0 0 0.4 1
04-01-2021 0.3 (16:30) -2.2 (-00:0) -1 4.72 (22:20) 3.61 (22:20) 2.8 0 0.6 1 1.2
11-01-2021 4.3 (16:10) -6.6 (-00:0) -1.1 4.72 (06:30) 3.61 (06:30) 0 0 0 0 0
08-01-2021 0.1 (15:40) -9.4 (-00:0) -4.6 6.11 (23:00) 4.44 (23:10) 0 0 0 0 0
23-01-2021 5.5 (13:30) 1.4 (00:00) 3.4 9.17 (23:50) 6.39 (23:50) 10.8 0 0 3.2 7.6
29-12-2020 5.3 (16:00) 0.1 (00:00) 2.7 10.56 (20:30) 6.67 (16:00) 0.4 0 0 0.4 0
01-01-2021 4.5 (12:50) -0.2 (00:00) 2.1 10.28 (14:10) 6.67 (12:50) 0 0 0 0 0
19-01-2021 11.5 (15:40) -1.9 (-00:0) 4.8 9.72 (14:40) 6.67 (23:59) 0 0 0 0 0
26-01-2021 9 (16:20) -1.6 (-00:0) 3.7 11.11 (01:30) 7.5 (01:50) 0 0 0 0 0
12-01-2021 6 (15:30) -7.8 (-00:0) -0.9 10.83 (23:10) 7.78 (19:20) 0 0 0 0 0
13-01-2021 10.3 (15:10) -0.2 (00:00) 5.1 10.83 (01:20) 7.78 (02:20) 0 0 0 0 0
30-12-2020 4.1 (14:10) 0 (00:00) 2 10.56 (15:00) 7.78 (05:30) 1.6 1.4 0.2 0 0
21-01-2021 9 (13:00) 4.7 (00:00) 6.8 12.22 (17:20) 8.06 (17:20) 4 0.4 0.8 1 1.8
05-01-2021 1.9 (13:00) -3.9 (-00:0) -1 11.39 (13:40) 8.89 (13:40) 0 0 0 0 0
24-01-2021 7.5 (15:50) 2.6 (00:00) 5 13.33 (06:10) 9.17 (06:30) 5.4 5.4 0 0 0
28-12-2020 4 (15:10) 0.1 (00:00) 2.1 14.17 (07:00) 9.72 (07:00) 12 10.4 0.2 0.6 0.8
17-01-2021 11.3 (12:40) 2.8 (00:00) 7.1 13.61 (17:10) 10 (22:00) 0 0 0 0 0
20-01-2021 6.7 (11:00) 2.7 (00:00) 4.7 16.67 (09:50) 10.56 (09:50) 3.6 0 0 1.2 2.4
03-01-2021 4.6 (15:50) -1.5 (-00:0) 1.5 14.44 (02:40) 10.83 (03:10) 0 0 0 0 0
25-01-2021 7.6 (16:40) 3.1 (00:00) 5.3 14.17 (21:20) 10.83 (21:20) 7.8 0.8 7 0 0
16-01-2021 12.3 (15:20) 1.7 (00:00) 7 16.11 (00:10) 11.11 (00:20) 0 0 0 0 0
14-01-2021 9.7 (15:10) -1 (09:00) 4.3 16.39 (16:20) 11.67 (16:20) 0 0 0 0 0
02-01-2021 2.9 (12:40) -2.5 (-00:0) 0.2 16.94 (16:20) 12.22 (22:20) 0 0 0 0 0
15-01-2021 8.1 (13:40) 3.9 (00:00) 6 19.17 (12:30) 13.06 (15:40) 0 0 0 0 0
22-01-2021 8.8 (04:00) 2.8 (00:00) 5.8 26.94 (06:50) 15 (06:50) 9.8 1.4 7.8 0.4 0.2

Gráficas

Temp. máximas Temp. mínimas Temp. medias Precipitaciones Rachas de viento máximas Velocidades máximas media en intervalos de 10 minutos

Datos horarios

Fecha y hora oficial Temperatura (ºC) Velocidad del viento (km/h) Dirección del viento Racha (km/h) Dirección de racha Precipitación (mm) Presión (hPa) Tendencia (hPa) Humedad (%)
2021-01-26 23:00:00 7.6 0 Calma 6 Sudeste 0 -- -- 82
2021-01-26 22:00:00 7.7 0 Calma 5 Oeste 0 -- -- 80
2021-01-26 21:00:00 7.8 4 Noroeste 9 Noroeste 0 -- -- 73
2021-01-26 20:00:00 7.6 6 Oeste 7 Oeste 0 -- -- 65
2021-01-26 19:00:00 8.1 3 Este 4 Este 0 -- -- 55
2021-01-26 18:00:00 8.7 2 Noroeste 5 Sudoeste 0 -- -- 56
2021-01-26 17:00:00 9 5 Sudoeste 12 Este 0 -- -- 51
2021-01-26 16:00:00 8.7 6 Sudeste 10 Este 0 -- -- 51
2021-01-26 15:00:00 8.5 4 Este 7 Este 0 -- -- 47
2021-01-26 14:00:00 7.7 4 Sudeste 8 Este 0 -- -- 44
2021-01-26 13:00:00 6.3 3 Este 8 Noroeste 0 -- -- 44
2021-01-26 12:00:00 4.7 3 Este 8 Sudeste 0 -- -- 60
2021-01-26 11:00:00 2.8 3 Norte 8 Este 0 -- -- 71
2021-01-26 10:00:00 0.9 2 Sudeste 4 Este 0 -- -- 78
2021-01-26 09:00:00 -0.8 2 Sur 6 Nordeste 0 -- -- 86
2021-01-26 08:00:00 -0.6 2 Sur 9 Sudoeste 0 -- -- 77
2021-01-26 07:00:00 -0.4 5 Sur 9 Sudoeste 0 -- -- 83
2021-01-26 06:00:00 -0.1 4 Sur 9 Sur 0 -- -- 80
2021-01-26 05:00:00 0.7 4 Sur 9 Sur 0 -- -- 73
2021-01-26 04:00:00 1.2 4 Nordeste 13 Sudeste 0 -- -- 68
2021-01-26 03:00:00 1.7 8 Sudeste 24 Noroeste 0 -- -- 67
2021-01-26 02:00:00 3.5 24 Noroeste 40 Noroeste 0 -- -- 52
2021-01-26 01:00:00 3.3 21 Noroeste 31 Noroeste 0 -- -- 62
2021-01-26 00:00:00 3.1 24 Oeste 43 Noroeste 0 -- -- 69
2021-01-25 23:00:00 3.7 30 Noroeste 45 Noroeste 0 -- -- 72
2021-01-25 22:00:00 4.4 36 Noroeste 51 Noroeste 0 -- -- 73
2021-01-25 21:00:00 5.2 33 Noroeste 44 Noroeste 0 -- -- 72
2021-01-25 20:00:00 5.6 26 Noroeste 47 Noroeste 0 -- -- 72
2021-01-25 19:00:00 6.3 29 Noroeste 42 Norte 0 -- -- 72
2021-01-25 18:00:00 6.9 23 Noroeste 36 Noroeste 0 -- -- 77
2021-01-25 17:00:00 7.6 26 Noroeste 40 Noroeste 0 -- -- 77
2021-01-25 16:00:00 7.4 26 Noroeste 37 Noroeste 0 -- -- 80
2021-01-25 15:00:00 7.5 26 Noroeste 37 Noroeste 0 -- -- 82
2021-01-25 14:00:00 7.2 14 Norte 27 Noroeste 0 -- -- 86
2021-01-25 13:00:00 6.2 4 Nordeste 9 Noroeste 0 -- -- 91
2021-01-25 12:00:00 5.3 2 Oeste 5 Este 0.2 -- -- 95
2021-01-25 11:00:00 4.7 4 Sudeste 6 Sudeste 1 -- -- 95
2021-01-25 10:00:00 4.3 3 Sudoeste 4 Sudoeste 1.4 -- -- 95
2021-01-25 09:00:00 4.4 3 Nordeste 15 Oeste 1.8 -- -- 94
2021-01-25 08:00:00 4.8 5 Noroeste 13 Noroeste 1.6 -- -- 93
2021-01-25 07:00:00 5 4 Sudeste 7 Sudeste 1 -- -- 94
2021-01-25 06:00:00 5 5 Este 9 Este 0.6 -- -- 92
2021-01-25 05:00:00 5 2 Sudoeste 4 Sudoeste 0.2 -- -- 90
2021-01-25 04:00:00 5 3 Sur 7 Sur 0 -- -- 88
2021-01-25 03:00:00 4.2 4 Sudoeste 9 Sudoeste 0 -- -- 89
2021-01-25 02:00:00 4.4 2 Sudeste 8 Sudeste 0 -- -- 88
2021-01-25 01:00:00 4.2 4 Este 9 Sudoeste 0 -- -- 89
2021-01-25 00:00:00 4.2 2 Sur 5 Oeste 0 -- -- 90
2021-01-24 23:00:00 4 3 Sudeste 4 Sudeste 0 -- -- 90
2021-01-24 22:00:00 4.3 2 Norte 5 Norte 0 -- -- 90
2021-01-24 21:00:00 4.3 3 Sudeste 8 Sur 0 -- -- 89
2021-01-24 20:00:00 4.3 6 Sudoeste 9 Sudoeste 0 -- -- 90
2021-01-24 19:00:00 4.6 7 Sudoeste 13 Sudoeste 0 -- -- 88
2021-01-24 18:00:00 5.7 6 Oeste 9 Nordeste 0 -- -- 85
2021-01-24 17:00:00 6.6 7 Nordeste 16 Nordeste 0 -- -- 80
2021-01-24 16:00:00 7.5 10 Norte 28 Noroeste 0 -- -- 76
2021-01-24 15:00:00 6.6 13 Norte 37 Noroeste 0 -- -- 82
2021-01-24 14:00:00 6.7 13 Norte 33 Norte 0 -- -- 81
2021-01-24 13:00:00 6 13 Norte 27 Noroeste 0 -- -- 84
2021-01-24 12:00:00 5.5 22 Noroeste 33 Noroeste 0 -- -- 80
2021-01-24 11:00:00 4.8 23 Noroeste 37 Noroeste 0 -- -- 82
2021-01-24 10:00:00 3.5 23 Noroeste 33 Noroeste 0 -- -- 85
2021-01-24 09:00:00 2.8 19 Noroeste 29 Noroeste 0 -- -- 86
2021-01-24 08:00:00 3.3 24 Norte 44 Noroeste 0 -- -- 82
2021-01-24 07:00:00 4 32 Noroeste 48 Norte 0 -- -- 79
2021-01-24 06:00:00 5.3 26 Norte 46 Noroeste 0.2 -- -- 89
2021-01-24 05:00:00 4.9 21 Noroeste 34 Noroeste 0.4 -- -- 98
2021-01-24 04:00:00 3 5 Nordeste 17 Sudeste 1.2 -- -- 97
2021-01-24 03:00:00 2.6 4 Noroeste 8 Norte 0.6 -- -- 97
2021-01-24 02:00:00 2.7 5 Sudoeste 12 Nordeste 0.2 -- -- 96
2021-01-24 01:00:00 2.8 4 Noroeste 19 Nordeste 2.8 -- -- 96
2021-01-24 00:00:00 3.2 18 Este 33 Sudeste 0 -- -- 95
2021-01-23 23:00:00 2.9 10 Sudeste 23 Sur 2.8 -- -- 96
2021-01-23 22:00:00 3.1 5 Sudoeste 20 Sur 3.2 -- -- 95
2021-01-23 21:00:00 3.1 4 Sudoeste 10 Sur 0.4 -- -- 96
2021-01-23 20:00:00 2.8 6 Oeste 13 Noroeste 1 -- -- 96
2021-01-23 19:00:00 3 6 Oeste 15 Este 0.2 -- -- 94
2021-01-23 18:00:00 3.1 10 Este 24 Este 0.2 -- -- 94
2021-01-23 17:00:00 3.9 6 Este 12 Este 1 -- -- 94
2021-01-23 16:00:00 4.2 8 Este 18 Este 1 -- -- 93
2021-01-23 15:00:00 5.1 7 Este 17 Sur 1 -- -- 89
2021-01-23 14:00:00 5.4 10 Sur 18 Sudeste 0 -- -- 83
2021-01-23 13:00:00 5.1 9 Sur 19 Sudeste 0 -- -- 77
2021-01-23 12:00:00 5 12 Sudeste 24 Sur 0 -- -- 79
2021-01-23 11:00:00 4.3 15 Sur 26 Sur 0 -- -- 79
2021-01-23 10:00:00 3.8 12 Sudoeste 23 Sur 0 -- -- 82
2021-01-23 09:00:00 2.5 4 Sudoeste 12 Sur 0 -- -- 86
2021-01-23 08:00:00 2.4 8 Sudoeste 10 Sudoeste 0 -- -- 87
2021-01-23 07:00:00 2.4 4 Sudoeste 7 Sudoeste 0 -- -- 86
2021-01-23 06:00:00 2.7 3 Sudoeste 7 Sudoeste 0 -- -- 85
2021-01-23 05:00:00 2.6 4 Sudoeste 8 Sudoeste 0 -- -- 85
2021-01-23 04:00:00 2.1 4 Sur 6 Noroeste 0 -- -- 85
2021-01-23 03:00:00 1.4 6 Sudoeste 9 Sudoeste 0 -- -- 88
2021-01-23 02:00:00 1.9 3 Oeste 9 Sudoeste 0 -- -- 84
2021-01-23 01:00:00 2 5 Oeste 8 Oeste 0 -- -- 85
2021-01-23 00:00:00 2.8 3 Oeste 17 Nordeste 0 -- -- 81
2021-01-22 23:00:00 3.5 5 Norte 18 Noroeste 0 -- -- 80
2021-01-22 22:00:00 3.4 11 Noroeste 25 Noroeste 0 -- -- 83
2021-01-22 21:00:00 3.4 12 Noroeste 40 Noroeste 0 -- -- 81
2021-01-22 20:00:00 3.9 27 Noroeste 49 Noroeste 0.2 -- -- 78
2021-01-22 19:00:00 3.4 8 Noroeste 22 Noroeste 0 -- -- 87
2021-01-22 18:00:00 3.5 16 Noroeste 31 Norte 0 -- -- 89
2021-01-22 17:00:00 4.1 19 Norte 38 Noroeste 0.2 -- -- 88
2021-01-22 16:00:00 5.4 29 Noroeste 50 Noroeste 0 -- -- 78
2021-01-22 15:00:00 6.1 30 Noroeste 62 Noroeste 0 -- -- 78
2021-01-22 14:00:00 6.4 39 Noroeste 60 Noroeste 0.2 -- -- 80
2021-01-22 13:00:00 5.9 33 Noroeste 51 Noroeste 0 -- -- 83
2021-01-22 12:00:00 5.2 27 Noroeste 51 Noroeste 0.4 -- -- 87
2021-01-22 11:00:00 5 31 Noroeste 54 Noroeste 0 -- -- 86
2021-01-22 10:00:00 5.9 33 Noroeste 63 Oeste 0.2 -- -- 76
2021-01-22 09:00:00 5.3 10 Noroeste 27 Noroeste 0 -- -- 85
2021-01-22 08:00:00 4.1 2 Sudoeste 49 Oeste 0.2 -- -- 90
2021-01-22 07:00:00 4.8 42 Oeste 97 Noroeste 7 -- -- 89
2021-01-22 06:00:00 8.3 19 Sudeste 38 Sur 1.2 -- -- 90
2021-01-22 05:00:00 8.5 19 Sudeste 41 Sudeste 0.2 -- -- 89
2021-01-22 04:00:00 8.8 27 Sudoeste 48 Sudoeste 0 -- -- 85
2021-01-22 03:00:00 8.2 28 Sur 39 Sur 0 -- -- 88
2021-01-22 02:00:00 8.2 22 Sur 43 Sur 0 -- -- 87
2021-01-22 01:00:00 8.5 28 Sur 39 Sur 0 -- -- 87
2021-01-22 00:00:00 8.3 20 Sur 37 Sur 0 -- -- 86
2021-01-21 23:00:00 8.2 28 Sur 38 Sur 0 -- -- 87
2021-01-21 22:00:00 7.7 15 Sur 27 Sur 0 -- -- 90
2021-01-21 21:00:00 7.7 13 Sur 30 Sur 0.4 -- -- 90
2021-01-21 20:00:00 7.4 20 Sur 41 Sur 0.8 -- -- 91
2021-01-21 19:00:00 7.8 20 Sur 36 Sur 0.6 -- -- 87
2021-01-21 18:00:00 8 16 Sur 44 Sur 0.4 -- -- 86
2021-01-21 17:00:00 7.9 23 Sur 33 Sur 0 -- -- 86
2021-01-21 16:00:00 7.4 22 Sur 30 Sur 0.4 -- -- 88
2021-01-21 15:00:00 8.2 12 Sur 32 Sur 0.2 -- -- 82
2021-01-21 14:00:00 8.7 10 Sur 23 Sudeste 0 -- -- 80
2021-01-21 13:00:00 9 11 Sudeste 22 Sudoeste 0 -- -- 80
2021-01-21 12:00:00 7.7 14 Sur 27 Sur 0 -- -- 85
2021-01-21 11:00:00 6.8 10 Sur 29 Sudeste 0 -- -- 88
2021-01-21 10:00:00 6 8 Sur 21 Sudeste 0 -- -- 90
2021-01-21 09:00:00 5.2 11 Sur 19 Sudeste 0.8 -- -- 92
2021-01-21 08:00:00 5.2 5 Sur 19 Sur 0 -- -- 91
2021-01-21 07:00:00 5.3 12 Sur 21 Sur 0 -- -- 91
2021-01-21 06:00:00 5 5 Este 10 Sur 0.2 -- -- 92
2021-01-21 05:00:00 5.1 0 Calma 10 Nordeste 0 -- -- 92
2021-01-21 04:00:00 5.4 5 Sudeste 18 Sudeste 0 -- -- 90
2021-01-21 03:00:00 5.4 10 Sudeste 15 Sur 0 -- -- 91
2021-01-21 02:00:00 5.3 9 Sur 22 Sur 0.2 -- -- 89
2021-01-21 01:00:00 4.9 7 Sur 21 Sur 0 -- -- 91
2021-01-21 00:00:00 4.7 13 Sur 26 Sur 0.4 -- -- 90
2021-01-20 23:00:00 5 19 Sur 26 Sudeste 0 -- -- 88
2021-01-20 22:00:00 5.3 15 Sur 28 Sudeste 0 -- -- 86
2021-01-20 21:00:00 5 19 Sudeste 34 Sudeste 0.2 -- -- 88
2021-01-20 20:00:00 4.7 18 Sudeste 33 Sur 1.4 -- -- 90
2021-01-20 19:00:00 4.9 21 Sur 30 Sur 0.4 -- -- 87
2021-01-20 18:00:00 5.2 21 Sur 38 Sur 0 -- -- 84
2021-01-20 17:00:00 5.5 18 Sur 34 Sur 0 -- -- 83
2021-01-20 16:00:00 5.8 22 Sur 38 Sudeste 0 -- -- 81
2021-01-20 15:00:00 6.5 26 Sur 43 Sur 0 -- -- 75
2021-01-20 14:00:00 6.2 23 Sudeste 53 Sudeste 0.4 -- -- 78
2021-01-20 13:00:00 5.9 29 Sur 51 Sudeste 0.8 -- -- 80
2021-01-20 12:00:00 6.4 25 Sur 51 Sur 0 -- -- 74
2021-01-20 11:00:00 6.7 32 Sur 49 Sur 0 -- -- 69
2021-01-20 10:00:00 5.4 36 Sur 60 Sur 0 -- -- 72
2021-01-20 09:00:00 3.4 37 Sur 48 Sur 0 -- -- 76
2021-01-20 08:00:00 2.7 28 Sur 40 Sur 0 -- -- 77
2021-01-20 07:00:00 3.8 22 Sur 38 Sur 0 -- -- 67
2021-01-20 06:00:00 3.7 30 Sur 42 Sur 0 -- -- 67
2021-01-20 05:00:00 3.7 22 Sur 36 Sur 0 -- -- 74
2021-01-20 04:00:00 3.6 28 Sur 39 Sur 0 -- -- 78
2021-01-20 03:00:00 3.9 26 Sur 35 Sur 0 -- -- 75
2021-01-20 02:00:00 4.3 25 Sur 33 Sur 0 -- -- 71
2021-01-20 01:00:00 4.6 23 Sudoeste 34 Sur 0 -- -- 74
2021-01-20 00:00:00 4.8 24 Sur 34 Sudoeste 0 -- -- 76
2021-01-19 23:00:00 4.6 18 Sur 31 Sur 0 -- -- 76
2021-01-19 22:00:00 4.8 15 Sur 29 Sudeste 0 -- -- 74
2021-01-19 21:00:00 4.9 19 Sudeste 27 Sur 0 -- -- 76
2021-01-19 20:00:00 5.7 8 Este 24 Sudeste 0 -- -- 69
2021-01-19 19:00:00 5.8 23 Sudeste 32 Este 0 -- -- 71
2021-01-19 18:00:00 7.9 14 Sur 30 Sur 0 -- -- 62
2021-01-19 17:00:00 10.4 17 Sur 24 Sur 0 -- -- 55
2021-01-19 16:00:00 11.4 13 Sudoeste 23 Sur 0 -- -- 52
2021-01-19 15:00:00 10.7 19 Sur 35 Sur 0 -- -- 51
2021-01-19 14:00:00 10.2 14 Sudeste 31 Sur 0 -- -- 56
2021-01-19 13:00:00 8.6 19 Sur 33 Sur 0 -- -- 63
2021-01-19 12:00:00 6.9 13 Sur 23 Sur 0 -- -- 69
2021-01-19 11:00:00 4.2 9 Sudeste 14 Este 0 -- -- 81
2021-01-19 10:00:00 1.4 4 Este 12 Sur 0 -- -- 89
2021-01-19 09:00:00 -1.8 0 Calma 12 Sudeste 0 -- -- 96
2021-01-19 08:00:00 -1.2 2 Oeste 5 Oeste 0 -- -- 96
2021-01-19 07:00:00 -1.1 2 Nordeste 9 Sudoeste 0 -- -- 95
2021-01-19 06:00:00 -0.9 0 Calma 5 Oeste 0 -- -- 94
2021-01-19 05:00:00 -0.6 0 Calma 4 Noroeste 0 -- -- 94
2021-01-19 04:00:00 -0.3 0 Calma 5 Sur 0 -- -- 94
2021-01-19 03:00:00 -0.4 3 Oeste 5 Oeste 0 -- -- 93
2021-01-19 02:00:00 0.4 2 Norte 5 Oeste 0 -- -- 92
2021-01-19 01:00:00 0.2 4 Oeste 5 Norte 0 -- -- 90
2021-01-19 00:00:00 1.6 3 Sudoeste 5 Este 0 -- -- 89
2021-01-18 23:00:00 2.2 0 Calma 8 Noroeste 0 -- -- 87
2021-01-18 22:00:00 3 3 Sur 5 Oeste 0 -- -- 83
2021-01-18 21:00:00 4 0 Calma 10 Sudoeste 0 -- -- 80
2021-01-18 20:00:00 5.2 7 Sudoeste 11 Sudoeste 0 -- -- 73
2021-01-18 19:00:00 6.2 6 Sur 9 Sudoeste 0 -- -- 68
2021-01-18 18:00:00 6.8 4 Oeste 9 Oeste 0 -- -- 66
2021-01-18 17:00:00 9.9 5 Sudoeste 8 Sudoeste 0 -- -- 57
2021-01-18 16:00:00 10.4 3 Sudeste 8 Sudeste 0 -- -- 48
2021-01-18 15:00:00 10 4 Sudeste 10 Sudeste 0 -- -- 47
2021-01-18 14:00:00 8.7 4 Sudeste 9 Nordeste 0 -- -- 50
2021-01-18 13:00:00 7.6 5 Nordeste 9 Este 0 -- -- 53
2021-01-18 12:00:00 6.3 3 Sur 6 Este 0 -- -- 53
2021-01-18 11:00:00 2.8 0 Calma 5 Este 0 -- -- 78
2021-01-18 10:00:00 0.4 0 Calma 5 Oeste 0 -- -- 83
2021-01-18 09:00:00 -0.8 0 Calma 5 Oeste 0 -- -- 86
2021-01-18 08:00:00 -0.3 3 Norte 4 Norte 0 -- -- 83
2021-01-18 07:00:00 -0.2 2 Oeste 4 Oeste 0 -- -- 81
2021-01-18 06:00:00 -0.4 0 Calma 5 Noroeste 0 -- -- 83
2021-01-18 05:00:00 0.3 0 Calma 10 Sudoeste 0 -- -- 80
2021-01-18 04:00:00 1.4 5 Sudoeste 8 Sudoeste 0 -- -- 77
2021-01-18 03:00:00 1.9 6 Sudoeste 8 Sudoeste 0 -- -- 76
2021-01-18 02:00:00 3.1 4 Sur 9 Sudeste 0 -- -- 73
2021-01-18 01:00:00 4.1 4 Sudeste 15 Noroeste 0 -- -- 72
2021-01-18 00:00:00 5.9 6 Oeste 31 Noroeste 0 -- -- 59
2021-01-17 23:00:00 7.1 23 Noroeste 46 Noroeste 0 -- -- 67
2021-01-17 22:00:00 8.1 36 Noroeste 48 Noroeste 0 -- -- 66
2021-01-17 21:00:00 7.5 28 Noroeste 43 Noroeste 0 -- -- 75
2021-01-17 20:00:00 8.1 30 Noroeste 48 Noroeste 0 -- -- 75
2021-01-17 19:00:00 8.5 31 Noroeste 45 Noroeste 0 -- -- 76
2021-01-17 18:00:00 8.8 29 Noroeste 49 Noroeste 0 -- -- 77
2021-01-17 17:00:00 9.5 29 Noroeste 45 Norte 0 -- -- 73
2021-01-17 16:00:00 10 31 Noroeste 45 Noroeste 0 -- -- 72
2021-01-17 15:00:00 10.3 31 Noroeste 43 Noroeste 0 -- -- 72
2021-01-17 14:00:00 10.4 27 Noroeste 42 Noroeste 0 -- -- 74
2021-01-17 13:00:00 11.1 27 Noroeste 42 Norte 0 -- -- 70
2021-01-17 12:00:00 10.3 28 Noroeste 38 Noroeste 0 -- -- 70
2021-01-17 11:00:00 10.3 26 Noroeste 35 Noroeste 0 -- -- 69
2021-01-17 10:00:00 8.2 19 Noroeste 30 Noroeste 0 -- -- 72
2021-01-17 09:00:00 7.1 16 Noroeste 30 Noroeste 0 -- -- 67
2021-01-17 08:00:00 6 9 Noroeste 17 Noroeste 0 -- -- 68
2021-01-17 07:00:00 4.9 6 Noroeste 14 Noroeste 0 -- -- 69
2021-01-17 06:00:00 4.2 3 Sudeste 11 Este 0 -- -- 59
2021-01-17 05:00:00 4.2 6 Este 11 Noroeste 0 -- -- 54
2021-01-17 04:00:00 3.4 4 Oeste 9 Oeste 0 -- -- 50
2021-01-17 03:00:00 3.2 3 Sudeste 8 Sudoeste 0 -- -- 45
2021-01-17 02:00:00 3.2 2 Oeste 8 Oeste 0 -- -- 45
2021-01-17 01:00:00 3.5 4 Oeste 8 Oeste 0 -- -- 44
2021-01-17 00:00:00 5.2 0 Calma 11 Sudeste 0 -- -- 37
2021-01-16 23:00:00 6.2 10 Sudeste 27 Noroeste 0 -- -- 31
2021-01-16 22:00:00 8.6 22 Noroeste 35 Noroeste 0 -- -- 26
2021-01-16 21:00:00 7.2 27 Noroeste 35 Noroeste 0 -- -- 31
2021-01-16 20:00:00 7.8 24 Noroeste 36 Oeste 0 -- -- 29
2021-01-16 19:00:00 8.5 27 Oeste 36 Noroeste 0 -- -- 28
2021-01-16 18:00:00 9.5 29 Noroeste 41 Noroeste 0 -- -- 30
2021-01-16 17:00:00 10.9 28 Noroeste 41 Noroeste 0 -- -- 27
2021-01-16 16:00:00 11.8 23 Noroeste 36 Noroeste 0 -- -- 26
2021-01-16 15:00:00 11.8 23 Noroeste 32 Oeste 0 -- -- 34
2021-01-16 14:00:00 11.2 9 Norte 18 Norte 0 -- -- 30
2021-01-16 13:00:00 8.3 5 Sur 10 Este 0 -- -- 43
2021-01-16 12:00:00 6.8 6 Este 13 Este 0 -- -- 48
2021-01-16 11:00:00 5.8 4 Este 8 Nordeste 0 -- -- 49
2021-01-16 10:00:00 3.8 3 Sudeste 9 Sudoeste 0 -- -- 55
2021-01-16 09:00:00 1.7 4 Sur 10 Norte 0 -- -- 62
2021-01-16 08:00:00 2 8 Noroeste 26 Norte 0 -- -- 62
2021-01-16 07:00:00 2.7 19 Noroeste 41 Noroeste 0 -- -- 58
2021-01-16 06:00:00 3.3 32 Noroeste 48 Noroeste 0 -- -- 56
2021-01-16 05:00:00 3.8 31 Noroeste 44 Noroeste 0 -- -- 54
2021-01-16 04:00:00 4.3 32 Noroeste 51 Noroeste 0 -- -- 55
2021-01-16 03:00:00 4.3 34 Noroeste 56 Noroeste 0 -- -- 60
2021-01-16 02:00:00 4.1 34 Noroeste 57 Noroeste 0 -- -- 64
2021-01-16 01:00:00 3.9 35 Noroeste 58 Noroeste 0 -- -- 65
2021-01-16 00:00:00 4.2 39 Noroeste 61 Noroeste 0 -- -- 66
2021-01-15 23:00:00 4.1 35 Noroeste 55 Norte 0 -- -- 68
2021-01-15 22:00:00 4.2 35 Noroeste 58 Noroeste 0 -- -- 66
2021-01-15 21:00:00 3.9 36 Noroeste 64 Noroeste 0 -- -- 66
2021-01-15 20:00:00 4.7 40 Noroeste 57 Noroeste 0 -- -- 68
2021-01-15 19:00:00 4.8 39 Noroeste 59 Noroeste 0 -- -- 69
2021-01-15 18:00:00 5 38 Noroeste 60 Noroeste 0 -- -- 68
2021-01-15 17:00:00 5.7 45 Noroeste 67 Noroeste 0 -- -- 66
2021-01-15 16:00:00 7.1 46 Noroeste 68 Noroeste 0 -- -- 62
2021-01-15 15:00:00 7.8 39 Noroeste 58 Noroeste 0 -- -- 65
2021-01-15 14:00:00 7.7 36 Noroeste 61 Noroeste 0 -- -- 65
2021-01-15 13:00:00 7.7 38 Noroeste 69 Noroeste 0 -- -- 64
2021-01-15 12:00:00 7.2 41 Noroeste 62 Noroeste 0 -- -- 64
2021-01-15 11:00:00 6.5 38 Noroeste 59 Noroeste 0 -- -- 66
2021-01-15 10:00:00 5.7 36 Noroeste 60 Noroeste 0 -- -- 72
2021-01-15 09:00:00 5.3 38 Noroeste 65 Noroeste 0 -- -- 73
2021-01-15 08:00:00 5.2 46 Noroeste 64 Noroeste 0 -- -- 72
2021-01-15 07:00:00 5.5 45 Noroeste 64 Noroeste 0 -- -- 73
2021-01-15 06:00:00 5.4 40 Noroeste 60 Noroeste 0 -- -- 72
2021-01-15 05:00:00 5.5 36 Noroeste 60 Noroeste 0 -- -- 73
2021-01-15 04:00:00 5.6 41 Noroeste 58 Noroeste 0 -- -- 71
2021-01-15 03:00:00 5.4 42 Noroeste 58 Noroeste 0 -- -- 72
2021-01-15 02:00:00 5.3 33 Noroeste 51 Noroeste 0 -- -- 68
2021-01-15 01:00:00 5.3 38 Noroeste 58 Noroeste 0 -- -- 67
2021-01-15 00:00:00 6.2 36 Noroeste 57 Noroeste 0 -- -- 67
2021-01-14 23:00:00 6.8 38 Noroeste 53 Noroeste 0 -- -- 72
2021-01-14 22:00:00 6.9 33 Noroeste 48 Noroeste 0 -- -- 76
2021-01-14 21:00:00 6.6 32 Noroeste 48 Noroeste 0 -- -- 79
2021-01-14 20:00:00 6.8 32 Noroeste 45 Noroeste 0 -- -- 79
2021-01-14 19:00:00 6.6 34 Noroeste 56 Noroeste 0 -- -- 78
2021-01-14 18:00:00 6.9 40 Noroeste 54 Noroeste 0 -- -- 73
2021-01-14 17:00:00 8 20 Noroeste 59 Noroeste 0 -- -- 64
2021-01-14 16:00:00 8.1 35 Noroeste 49 Noroeste 0 -- -- 57
2021-01-14 15:00:00 9.4 17 Noroeste 33 Noroeste 0 -- -- 60
2021-01-14 14:00:00 9.2 18 Noroeste 26 Noroeste 0 -- -- 58
2021-01-14 13:00:00 6.8 5 Este 9 Este 0 -- -- 68
2021-01-14 12:00:00 5.2 5 Sudeste 8 Sudeste 0 -- -- 71
2021-01-14 11:00:00 3.4 4 Sudeste 6 Sudeste 0 -- -- 79
2021-01-14 10:00:00 0.6 2 Este 5 Oeste 0 -- -- 86
2021-01-14 09:00:00 -1 0 Calma 5 Oeste 0 -- -- 90
2021-01-14 08:00:00 -0.4 4 Sudoeste 6 Sudoeste 0 -- -- 87
2021-01-14 07:00:00 -0.3 5 Sudoeste 6 Sudoeste 0 -- -- 85
2021-01-14 06:00:00 -0.3 0 Calma 11 Norte 0 -- -- 91
2021-01-14 05:00:00 -0.6 3 Oeste 6 Oeste 0 -- -- 89
2021-01-14 04:00:00 -0.2 2 Sudoeste 6 Sudoeste 0 -- -- 88
2021-01-14 03:00:00 -0.2 3 Oeste 5 Oeste 0 -- -- 90
2021-01-14 02:00:00 -0.1 2 Oeste 9 Noroeste 0 -- -- 92
2021-01-14 01:00:00 0.3 0 Calma 5 Este 0 -- -- 91
2021-01-14 00:00:00 -0.2 3 Sudoeste 6 Oeste 0 -- -- 89
2021-01-13 23:00:00 1.3 4 Oeste 9 Sudoeste 0 -- -- 85
2021-01-13 22:00:00 1.9 3 Oeste 9 Sudoeste 0 -- -- 85
2021-01-13 21:00:00 2.9 4 Sudoeste 8 Sudoeste 0 -- -- 82
2021-01-13 20:00:00 3 4 Sudoeste 8 Sur 0 -- -- 80
2021-01-13 19:00:00 4 3 Sur 8 Noroeste 0 -- -- 77
2021-01-13 18:00:00 6.3 3 Norte 7 Noroeste 0 -- -- 72
2021-01-13 17:00:00 9.3 3 Oeste 15 Norte 0 -- -- 60
2021-01-13 16:00:00 10.1 11 Norte 19 Norte 0 -- -- 56
2021-01-13 15:00:00 10.1 10 Norte 17 Norte 0 -- -- 57
2021-01-13 14:00:00 9.7 7 Norte 14 Noroeste 0 -- -- 59
2021-01-13 13:00:00 8.9 7 Este 11 Este 0 -- -- 61
2021-01-13 12:00:00 6.9 5 Sudeste 7 Sudeste 0 -- -- 66
2021-01-13 11:00:00 5.9 5 Este 7 Este 0 -- -- 70
2021-01-13 10:00:00 4.2 4 Sur 10 Sudeste 0 -- -- 74
2021-01-13 09:00:00 1.9 5 Sur 8 Sudoeste 0 -- -- 80
2021-01-13 08:00:00 2.8 2 Norte 9 Norte 0 -- -- 80
2021-01-13 07:00:00 3.6 8 Norte 19 Norte 0 -- -- 77
2021-01-13 06:00:00 3.6 3 Sur 27 Noroeste 0 -- -- 78
2021-01-13 05:00:00 4.7 21 Noroeste 38 Noroeste 0 -- -- 74
2021-01-13 04:00:00 4.7 24 Noroeste 35 Noroeste 0 -- -- 75
2021-01-13 03:00:00 4.6 22 Noroeste 38 Noroeste 0 -- -- 76
2021-01-13 02:00:00 4.6 23 Noroeste 39 Noroeste 0 -- -- 75
2021-01-13 01:00:00 4.4 22 Noroeste 33 Noroeste 0 -- -- 76
2021-01-13 00:00:00 4.3 25 Noroeste 39 Noroeste 0 -- -- 76
2021-01-12 23:00:00 4 23 Noroeste 37 Noroeste 0 -- -- 76
2021-01-12 22:00:00 4.1 22 Noroeste 37 Noroeste 0 -- -- 75
2021-01-12 21:00:00 3.8 18 Noroeste 29 Noroeste 0 -- -- 77
2021-01-12 20:00:00 3.6 13 Noroeste 36 Noroeste 0 -- -- 73
2021-01-12 19:00:00 3 19 Noroeste 35 Noroeste 0 -- -- 74
2021-01-12 18:00:00 2.8 4 Noroeste 18 Noroeste 0 -- -- 72
2021-01-12 17:00:00 4.6 18 Noroeste 30 Noroeste 0 -- -- 67
2021-01-12 16:00:00 5.3 19 Noroeste 28 Noroeste 0 -- -- 64
2021-01-12 15:00:00 5.3 3 Oeste 8 Este 0 -- -- 60
2021-01-12 14:00:00 3.5 3 Este 8 Sudeste 0 -- -- 59
2021-01-12 13:00:00 2.4 2 Sur 5 Oeste 0 -- -- 61
2021-01-12 12:00:00 -0.7 2 Este 5 Este 0 -- -- 63
2021-01-12 11:00:00 -3.5 2 Sudeste 5 Este 0 -- -- 67
2021-01-12 10:00:00 -5.2 2 Sudeste 5 Este 0 -- -- 71
2021-01-12 09:00:00 -7.7 3 Oeste 6 Noroeste 0 -- -- 78
2021-01-12 08:00:00 -7.6 3 Noroeste 6 Sudeste 0 -- -- 75
2021-01-12 07:00:00 -7.2 0 Calma 6 Sur 0 -- -- 73
2021-01-12 06:00:00 -6.9 3 Sudeste 6 Noroeste 0 -- -- 72
2021-01-12 05:00:00 -6.7 2 Este 5 Sudoeste 0 -- -- 70
2021-01-12 04:00:00 -6.5 0 Calma 6 Noroeste 0 -- -- 69
2021-01-12 03:00:00 -5.7 3 Sudoeste 9 Sudeste 0 -- -- 64
2021-01-12 02:00:00 -5.7 4 Noroeste 9 Noroeste 0 -- -- 62
2021-01-12 01:00:00 -5 4 Noroeste 9 Sudoeste 0 -- -- 58
2021-01-12 00:00:00 -3 5 Sudoeste 12 Sur 0 -- -- 54
2021-01-11 23:00:00 -3 7 Sur 10 Sudeste 0 -- -- 53
2021-01-11 22:00:00 -3.1 2 Noroeste 6 Oeste 0 -- -- 54
2021-01-11 21:00:00 -3.1 2 Noroeste 8 Oeste 0 -- -- 53
2021-01-11 20:00:00 -2.2 4 Sudoeste 7 Sudoeste 0 -- -- 52
2021-01-11 19:00:00 -1.1 3 Noroeste 9 Norte 0 -- -- 48
2021-01-11 18:00:00 0 3 Noroeste 14 Noroeste 0 -- -- 49
2021-01-11 17:00:00 3.3 3 Sudoeste 5 Sudoeste 0 -- -- 50
2021-01-11 16:00:00 3.8 4 Sudeste 7 Sudeste 0 -- -- 47
2021-01-11 15:00:00 3.2 5 Sudeste 8 Sudeste 0 -- -- 48
2021-01-11 14:00:00 3.1 2 Sudeste 6 Sudeste 0 -- -- 52
2021-01-11 13:00:00 0.4 3 Este 6 Este 0 -- -- 63
2021-01-11 12:00:00 0.2 3 Sudeste 4 Sudeste 0 -- -- 59
2021-01-11 11:00:00 -1.5 0 Calma 6 Sudeste 0 -- -- 69
2021-01-11 10:00:00 -3.3 4 Sur 8 Sudeste 0 -- -- 70
2021-01-11 09:00:00 -4.8 5 Sudeste 8 Sudeste 0 -- -- 75
2021-01-11 08:00:00 -5.1 6 Sudoeste 7 Sur 0 -- -- 78
2021-01-11 07:00:00 -5.2 3 Sudoeste 17 Noroeste 0 -- -- 78
2021-01-11 06:00:00 -5.3 5 Noroeste 8 Oeste 0 -- -- 79
2021-01-11 05:00:00 -5.9 3 Este 8 Norte 0 -- -- 80
2021-01-11 04:00:00 -5.5 5 Norte 12 Noroeste 0 -- -- 83
2021-01-11 03:00:00 -6.5 3 Oeste 7 Sudoeste 0 -- -- 88
2021-01-11 02:00:00 -6.2 5 Sudoeste 8 Sudoeste 0 -- -- 88
2021-01-11 01:00:00 -5.7 0 Calma 3 Oeste 0 -- -- 88
2021-01-11 00:00:00 -5.1 2 Oeste 7 Sudoeste 0 -- -- 86
2021-01-10 23:00:00 -3.9 3 Sudoeste 6 Sur 0 -- -- 87
2021-01-10 22:00:00 -3.9 3 Sudoeste 4 Oeste 0 -- -- 86
2021-01-10 21:00:00 -2.7 2 Sudoeste 4 Noroeste 0 -- -- 89
2021-01-10 20:00:00 -1.6 3 Norte 8 Noroeste 0 -- -- 90
2021-01-10 19:00:00 -0.7 3 Nordeste 5 Nordeste 0 -- -- 92
2021-01-10 18:00:00 -0.4 2 Noroeste 4 Sudeste 0 -- -- 90
2021-01-10 17:00:00 1 0 Calma 5 Norte 0 -- -- 83
2021-01-10 16:00:00 1.5 2 Norte 5 Norte 0 -- -- 82
2021-01-10 15:00:00 0.7 2 Norte 4 Noroeste 0 -- -- 89
2021-01-10 14:00:00 0.4 2 Noroeste 4 Nordeste 0 -- -- 88
2021-01-10 13:00:00 0.8 2 Oeste 4 Norte 0 -- -- 88
2021-01-10 12:00:00 -0.3 3 Norte 4 Norte 0.8 -- -- 91
2021-01-10 11:00:00 -1.1 0 Calma 4 Sur 0 -- -- 95
2021-01-10 10:00:00 -2.7 3 Norte 4 Norte 0 -- -- 96
2021-01-10 09:00:00 -2.7 0 Calma 4 Norte 0 -- -- 96
2021-01-10 08:00:00 -2.3 2 Norte 5 Norte 0 -- -- 97
2021-01-10 07:00:00 -2.5 0 Calma -- -- 0 -- -- 97
2021-01-10 06:00:00 -2.3 0 Calma 3 Norte 0.2 -- -- 98
2021-01-10 05:00:00 -2.4 2 Norte 3 Norte 0 -- -- 97
2021-01-10 04:00:00 -1.9 0 Calma 3 Norte 0.4 -- -- 97
2021-01-10 03:00:00 -1.8 2 Norte -- -- 0.4 -- -- 97
2021-01-10 02:00:00 -1.8 2 Norte 4 Norte 0.6 -- -- 97
2021-01-10 01:00:00 -1.8 0 Calma -- -- 0.2 -- -- 97
2021-01-10 00:00:00 -1.7 0 Calma 2 Norte 0.2 -- -- 97
2021-01-09 23:00:00 -1.7 0 Calma 0 Calma 0.6 -- -- 97
2021-01-09 22:00:00 -1.6 0 Calma 2 Sur 0.8 -- -- 96
2021-01-09 21:00:00 -1.7 0 Calma 2 Sur 1.2 -- -- 96
2021-01-09 20:00:00 -1.8 0 Calma 4 Noroeste 0.8 -- -- 96
2021-01-09 19:00:00 -1.7 2 Noroeste 5 Noroeste 0 -- -- 95
2021-01-09 18:00:00 -1.3 0 Calma 3 Norte 0.2 -- -- 94
2021-01-09 17:00:00 -1.2 0 Calma -- -- 0.8 -- -- 93
2021-01-09 16:00:00 -0.6 2 Este 5 Sudeste 0.6 -- -- 93
2021-01-09 15:00:00 -1 3 Sudeste 4 Este 1 -- -- 93
2021-01-09 14:00:00 -0.8 0 Calma 3 Noroeste 0.8 -- -- 92
2021-01-09 13:00:00 -1.7 2 Sudoeste 4 Sudoeste 1.2 -- -- 94
2021-01-09 12:00:00 -2 3 Norte 6 Noroeste 1 -- -- 95
2021-01-09 11:00:00 -2.3 4 Noroeste 6 Noroeste 0.4 -- -- 95
2021-01-09 10:00:00 -2.5 3 Norte 4 Noroeste 0.4 -- -- 95
2021-01-09 09:00:00 -2.8 2 Noroeste 5 Noroeste 1 -- -- 95
2021-01-09 08:00:00 -2.7 3 Noroeste -- -- 0.4 -- -- 94
2021-01-09 07:00:00 -2.6 2 Oeste 3 Oeste 0 -- -- 92
2021-01-09 06:00:00 -2.5 0 Calma 5 Sur 0 -- -- 90
2021-01-09 05:00:00 -2.4 0 Calma 4 Nordeste 0 -- -- 87
2021-01-09 04:00:00 -2.2 3 Sudeste 6 Sudeste 0 -- -- 84
2021-01-09 03:00:00 -2.4 6 Sudeste 7 Sudeste 0 -- -- 88
2021-01-09 02:00:00 -2.4 0 Calma 8 Noroeste 0 -- -- 87
2021-01-09 01:00:00 -2.3 3 Noroeste 9 Noroeste 0 -- -- 87
2021-01-09 00:00:00 -2.1 5 Oeste 22 Sur 0 -- -- 84
2021-01-08 23:00:00 -1.7 10 Sur 22 Sur 0 -- -- 82
2021-01-08 22:00:00 -1.9 0 Calma 5 Sudoeste 0 -- -- 83
2021-01-08 21:00:00 -1.8 4 Sur 5 Sudoeste 0 -- -- 79
2021-01-08 20:00:00 -1.9 4 Sudoeste 6 Sudoeste 0 -- -- 84
2021-01-08 19:00:00 -1.7 3 Noroeste 5 Noroeste 0 -- -- 82
2021-01-08 18:00:00 -1.1 4 Noroeste 4 Noroeste 0 -- -- 80
2021-01-08 17:00:00 -0.2 0 Calma 4 Nordeste 0 -- -- 74
2021-01-08 16:00:00 0.1 3 Este 4 Norte 0 -- -- 73
2021-01-08 15:00:00 -0.1 2 Norte 6 Noroeste 0 -- -- 73
2021-01-08 14:00:00 -0.6 2 Noroeste 6 Norte 0 -- -- 79
2021-01-08 13:00:00 -1 3 Oeste 6 Noroeste 0 -- -- 85
2021-01-08 12:00:00 -3.3 3 Noroeste 5 Oeste 0 -- -- 89
2021-01-08 11:00:00 -5.1 3 Noroeste 5 Norte 0 -- -- 93
2021-01-08 10:00:00 -7.3 3 Este 5 Este 0 -- -- 95
2021-01-08 09:00:00 -9.2 0 Calma 4 Noroeste 0 -- -- 95
2021-01-08 08:00:00 -9.2 0 Calma 2 Oeste 0 -- -- 94
2021-01-08 07:00:00 -9 0 Calma 3 Noroeste 0 -- -- 94
2021-01-08 06:00:00 -8.4 0 Calma 3 Sudoeste 0 -- -- 95
2021-01-08 05:00:00 -8.1 2 Noroeste 4 Norte 0 -- -- 94
2021-01-08 04:00:00 -8 0 Calma 5 Nordeste 0 -- -- 94
2021-01-08 03:00:00 -7.2 0 Calma 6 Este 0 -- -- 94
2021-01-08 02:00:00 -7 4 Sudeste 8 Noroeste 0 -- -- 92
2021-01-08 01:00:00 -6 0 Calma 5 Norte 0 -- -- 92
2021-01-08 00:00:00 -5.1 3 Oeste 5 Sudoeste 0 -- -- 90
2021-01-07 23:00:00 -5 2 Noroeste 5 Oeste 0 -- -- 89
2021-01-07 22:00:00 -4.2 0 Calma 5 Sudoeste 0 -- -- 88
2021-01-07 21:00:00 -4.4 2 Oeste 4 Oeste 0 -- -- 87
2021-01-07 20:00:00 -3.4 0 Calma 7 Oeste 0 -- -- 85
2021-01-07 19:00:00 -3 5 Oeste 6 Sudoeste 0 -- -- 87
2021-01-07 18:00:00 -1.9 5 Noroeste 6 Noroeste 0 -- -- 87
2021-01-07 17:00:00 -1.1 3 Este 6 Sudeste 0 -- -- 87
2021-01-07 16:00:00 -1.2 3 Noroeste 5 Nordeste 0 -- -- 84
2021-01-07 15:00:00 -1.2 2 Sur 6 Sudoeste 0 -- -- 86
2021-01-07 14:00:00 -1.8 0 Calma 5 Noroeste 0 -- -- 87
2021-01-07 13:00:00 -2.5 3 Este 5 Nordeste 0 -- -- 90
2021-01-07 12:00:00 -3.8 2 Este 4 Nordeste 0 -- -- 92
2021-01-07 11:00:00 -5.1 2 Sudeste 5 Este 0 -- -- 94
2021-01-07 10:00:00 -6.3 0 Calma 5 Sudeste 0 -- -- 94
2021-01-07 09:00:00 -7 2 Sudeste 4 Este 0 -- -- 93
2021-01-07 08:00:00 -6.8 0 Calma 6 Sudoeste 0 -- -- 94
2021-01-07 07:00:00 -6.8 2 Noroeste 6 Sudoeste 0 -- -- 93
2021-01-07 06:00:00 -6.5 2 Este 6 Este 0 -- -- 93
2021-01-07 05:00:00 -6 0 Calma 3 Norte 0 -- -- 93
2021-01-07 04:00:00 -5.6 0 Calma 2 Oeste 0 -- -- 93
2021-01-07 03:00:00 -5.5 2 Sudeste 3 Sudeste 0 -- -- 93
2021-01-07 02:00:00 -5.4 2 Oeste 4 Sudoeste 0 -- -- 91
2021-01-07 01:00:00 -4.8 2 Oeste 4 Sudoeste 0 -- -- 92
2021-01-07 00:00:00 -4.2 3 Noroeste 5 Noroeste 0 -- -- 91
2021-01-06 23:00:00 -3.5 0 Calma 4 Oeste 0 -- -- 89
2021-01-06 22:00:00 -3.3 0 Calma 3 Noroeste 0 -- -- 88
2021-01-06 21:00:00 -2.6 0 Calma 5 Noroeste 0 -- -- 86
2021-01-06 20:00:00 -2 3 Noroeste 5 Sudoeste 0 -- -- 85
2021-01-06 19:00:00 -1.4 3 Norte 6 Sudoeste 0 -- -- 83
2021-01-06 18:00:00 -0.6 4 Oeste 7 Sudoeste 0 -- -- 80
2021-01-06 17:00:00 1.8 5 Sudoeste 8 Sudoeste 0 -- -- 72
2021-01-06 16:00:00 2.5 0 Calma 8 Oeste 0 -- -- 67
2021-01-06 15:00:00 2.1 4 Norte 12 Oeste 0 -- -- 70
2021-01-06 14:00:00 1 3 Norte 14 Nordeste 0 -- -- 76
2021-01-06 13:00:00 -0.4 5 Noroeste 8 Noroeste 0 -- -- 81
2021-01-06 12:00:00 -1 5 Sur 18 Sur 0 -- -- 83
2021-01-06 11:00:00 -2.9 5 Sur 8 Sur 0 -- -- 88
2021-01-06 10:00:00 -4.9 0 Calma 6 Noroeste 0 -- -- 92
2021-01-06 09:00:00 -6.3 3 Noroeste 5 Noroeste 0 -- -- 94
2021-01-06 08:00:00 -6.8 0 Calma 6 Sudoeste 0 -- -- 92
2021-01-06 07:00:00 -6.2 4 Sudeste 9 Sudoeste 0 -- -- 94
2021-01-06 06:00:00 -6.4 0 Calma 7 Sudoeste 0 -- -- 91
2021-01-06 05:00:00 -6.1 2 Oeste 3 Sudoeste 0 -- -- 93
2021-01-06 04:00:00 -5.9 0 Calma 3 Nordeste 0 -- -- 93
2021-01-06 03:00:00 -5.6 0 Calma 4 Sudeste 0 -- -- 92
2021-01-06 02:00:00 -5.1 4 Norte 4 Noroeste 0 -- -- 92
2021-01-06 01:00:00 -4.9 2 Noroeste 5 Noroeste 0 -- -- 89
2021-01-06 00:00:00 -3.9 3 Noroeste 8 Sudoeste 0 -- -- 87
2021-01-05 23:00:00 -3.2 2 Sudeste 5 Oeste 0 -- -- 86
2021-01-05 22:00:00 -3 3 Oeste 8 Oeste 0 -- -- 85
2021-01-05 21:00:00 -2.3 4 Oeste 9 Noroeste 0 -- -- 83
2021-01-05 20:00:00 -2 4 Oeste 11 Noroeste 0 -- -- 82
2021-01-05 19:00:00 -1.4 9 Noroeste 22 Noroeste 0 -- -- 81
2021-01-05 18:00:00 -0.9 15 Noroeste 29 Noroeste 0 -- -- 79
2021-01-05 17:00:00 -0.1 20 Noroeste 30 Noroeste 0 -- -- 76
2021-01-05 16:00:00 0.5 20 Noroeste 35 Norte 0 -- -- 74
2021-01-05 15:00:00 1.2 22 Noroeste 38 Noroeste 0 -- -- 74
2021-01-05 14:00:00 1.9 26 Noroeste 41 Noroeste 0 -- -- 74
2021-01-05 13:00:00 1.9 27 Noroeste 36 Noroeste 0 -- -- 77
2021-01-05 12:00:00 1.2 9 Noroeste 19 Noroeste 0 -- -- 91
2021-01-05 11:00:00 -0.9 4 Norte 8 Nordeste 0 -- -- 96
2021-01-05 10:00:00 -1.4 2 Norte 8 Noroeste 0 -- -- 97
2021-01-05 09:00:00 -1.6 2 Oeste 5 Norte 0 -- -- 96
2021-01-05 08:00:00 -1.8 3 Este 6 Sudeste 0 -- -- 95
2021-01-05 07:00:00 -1.7 0 Calma 4 Sur 0 -- -- 95
2021-01-05 06:00:00 -1.9 0 Calma 6 Sudoeste 0 -- -- 95
2021-01-05 05:00:00 -1.9 2 Sudeste 8 Sur 0 -- -- 94
2021-01-05 04:00:00 -2.1 0 Calma 5 Noroeste 0 -- -- 92
2021-01-05 03:00:00 -2.5 5 Noroeste 7 Noroeste 0 -- -- 91
2021-01-05 02:00:00 -2.3 5 Noroeste 11 Noroeste 0 -- -- 87
2021-01-05 01:00:00 -2 6 Noroeste 12 Noroeste 0 -- -- 87
2021-01-05 00:00:00 -1.7 7 Noroeste 11 Noroeste 0 -- -- 90
2021-01-04 23:00:00 -1.5 9 Noroeste 17 Noroeste 0 -- -- 94
2021-01-04 22:00:00 -1.1 9 Noroeste 12 Noroeste 0.2 -- -- 97
2021-01-04 21:00:00 -1.1 3 Este 5 Este 0 -- -- 97
2021-01-04 20:00:00 -0.9 3 Sudeste 4 Sudeste 0 -- -- 96
2021-01-04 19:00:00 -0.7 2 Oeste 8 Noroeste 1 -- -- 96
2021-01-04 18:00:00 -0.4 0 Calma 5 Norte 0.4 -- -- 96
2021-01-04 17:00:00 0 3 Este 6 Sudeste 0 -- -- 94
2021-01-04 16:00:00 0.1 5 Este 8 Sudeste 0 -- -- 94
2021-01-04 15:00:00 -0.2 5 Este 15 Nordeste 0 -- -- 96
2021-01-04 14:00:00 -0.2 6 Este 10 Nordeste 0.2 -- -- 95
2021-01-04 13:00:00 -0.1 7 Nordeste 10 Nordeste 0.4 -- -- 94
2021-01-04 12:00:00 -0.1 3 Norte 5 Norte 0.4 -- -- 94
2021-01-04 11:00:00 -0.6 4 Este 5 Este 0.2 -- -- 94
2021-01-04 10:00:00 -1.1 0 Calma 7 Este 0 -- -- 93
2021-01-04 09:00:00 -1.9 4 Oeste 6 Oeste 0 -- -- 91
2021-01-04 08:00:00 -1.5 8 Sudoeste 11 Sudoeste 0 -- -- 91
2021-01-04 07:00:00 -1.8 2 Sudeste 8 Noroeste 0 -- -- 93
2021-01-04 06:00:00 -2 2 Sudoeste 8 Este 0 -- -- 93
2021-01-04 05:00:00 -1.8 6 Sudoeste 9 Sudoeste 0 -- -- 93
2021-01-04 04:00:00 -1.3 3 Sudeste 6 Sudeste 0 -- -- 94
2021-01-04 03:00:00 -1.2 0 Calma 9 Sudeste -- -- -- 94
2021-01-04 02:00:00 -0.8 3 Noroeste 8 Noroeste 0 -- -- 93
2021-01-04 01:00:00 -0.4 3 Norte 5 Sudoeste 0 -- -- 93
2021-01-04 00:00:00 0.1 2 Sudeste 6 Norte 0 -- -- 94
2021-01-03 23:00:00 0.3 2 Sudeste 6 Noroeste 0 -- -- 93
2021-01-03 22:00:00 0.6 4 Noroeste 8 Norte 0 -- -- 92
2021-01-03 21:00:00 0.9 5 Norte 8 Oeste 0 -- -- 91
2021-01-03 20:00:00 1 3 Oeste 6 Sudoeste 0 -- -- 88
2021-01-03 19:00:00 1.3 3 Sudeste 12 Noroeste 0 -- -- 86
2021-01-03 18:00:00 1.9 10 Noroeste 20 Noroeste 0 -- -- 82
2021-01-03 17:00:00 3.1 13 Noroeste 22 Noroeste 0 -- -- 72
2021-01-03 16:00:00 3.6 17 Noroeste 28 Noroeste 0 -- -- 69
2021-01-03 15:00:00 3.2 17 Noroeste 32 Noroeste 0 -- -- 71
2021-01-03 14:00:00 3.8 21 Noroeste 33 Noroeste 0 -- -- 64
2021-01-03 13:00:00 4.3 23 Noroeste 41 Noroeste 0 -- -- 65
2021-01-03 12:00:00 3.8 24 Noroeste 40 Noroeste 0 -- -- 61
2021-01-03 11:00:00 2.9 28 Noroeste 40 Noroeste 0 -- -- 63
2021-01-03 10:00:00 1.7 25 Noroeste 40 Noroeste 0 -- -- 64
2021-01-03 09:00:00 -0.1 29 Noroeste 39 Noroeste 0 -- -- 71
2021-01-03 08:00:00 -0.1 27 Noroeste 42 Noroeste 0 -- -- 69
2021-01-03 07:00:00 -0.2 25 Noroeste 44 Noroeste 0 -- -- 68
2021-01-03 06:00:00 -0.1 31 Noroeste 50 Noroeste 0 -- -- 67
2021-01-03 05:00:00 -0.9 28 Noroeste 45 Noroeste 0 -- -- 70
2021-01-03 04:00:00 -1 32 Noroeste 51 Noroeste 0 -- -- 64
2021-01-03 03:00:00 -0.8 39 Noroeste 52 Noroeste 0 -- -- 55
2021-01-03 02:00:00 -0.6 33 Noroeste 48 Noroeste 0 -- -- 52
2021-01-03 01:00:00 -0.9 31 Noroeste 48 Noroeste 0 -- -- 56
2021-01-03 00:00:00 -1.5 32 Noroeste 49 Noroeste 0 -- -- 61
2021-01-02 23:00:00 -1.6 38 Noroeste 58 Noroeste 0 -- -- 64
2021-01-02 22:00:00 -1.2 40 Noroeste 53 Noroeste 0 -- -- 61
2021-01-02 21:00:00 -1.3 33 Noroeste 54 Norte 0 -- -- 64
2021-01-02 20:00:00 -1.2 37 Noroeste 59 Noroeste 0 -- -- 60
2021-01-02 19:00:00 -1 36 Noroeste 52 Noroeste 0 -- -- 57
2021-01-02 18:00:00 -0.6 37 Noroeste 53 Noroeste 0 -- -- 58
2021-01-02 17:00:00 0.3 36 Noroeste 61 Noroeste 0 -- -- 55
2021-01-02 16:00:00 1.3 35 Noroeste 58 Noroeste 0 -- -- 53
2021-01-02 15:00:00 1.6 32 Noroeste 52 Noroeste 0 -- -- 53
2021-01-02 14:00:00 2.4 36 Noroeste 54 Noroeste 0 -- -- 52